x

West Tampa - 112 Nm Wnw Of Tampa, Fl (42036) Wave Buoy

10:50pm - Thu 26th Mar 2015 All times are EDT. -4 hours from GMT.

  • Sig Wave height 1.6ft
  • Swell Direction
  • Peak Period 5s
  • Average Period 4s
  • Wind
    9mph, 11mph gusts
  • Sea Temp 71°f
  • Air Temp 68°f
  • Sea Pressure 1013.8mb
  • West Tampa  - 112 Nm Wnw Of Tampa, Fl
  • West Tampa  - 112 Nm Wnw Of Tampa, Fl

More Historic Weather Station data

Upgrade to MSW Pro to gain access to the past 30 days of data for over 8000 Wavebouys and Weather Stations around the globe.

Join Pro

Comparision Forecast

View Surf forecast
   
Thu 03/26 10:50pm 1.6ft 5s 4s 9 11 mph 1013.8mb 71f 68f
9:50pm 2ft 5s 4s 9 16 mph 1013.1mb 71f 68f
8:50pm 2ft 5s 4s 4 7 mph 1012.6mb 71f 69f
7:50pm 2.5ft 5s 4s 7 9 mph 1012.7mb 72f 68f
6:50pm 2.5ft 4s 4s 9 11 mph 1013.1mb 72f 67f
5:50pm 3ft 4s 4s 13 16 mph 1012.9mb 72f 67f
4:50pm 3ft 5s 4s 20 22 mph 1013.4mb 72f 65f
3:50pm 2.5ft 5s 4s 11 18 mph 1012.8mb 72f 70f
2:50pm 2.5ft 5s 4s 16 18 mph 1012.7mb 72f 74f
1:50pm 3ft 5s 4s 18 20 mph 1013.7mb 72f 74f
12:50pm 2.5ft 5s 4s 18 20 mph 1014.6mb 72f 74f
11:50am 2.5ft 5s 4s 16 18 mph 1015mb 72f 74f
10:50am 2.5ft 5s 4s 13 16 mph 1014.9mb 72f 73f
9:50am 2ft 5s 4s 13 16 mph 1015.5mb 72f 73f
8:50am 1.6ft 3s 4s 11 13 mph 1015.9mb 72f 73f
7:50am 1.3ft 3s 3s 11 13 mph 1015.9mb 72f 73f
6:50am 1.3ft 3s 3s 9 11 mph 1015.2mb 72f 73f
5:50am 1.3ft 3s 3s 9 11 mph 1015.1mb 71f 73f
4:50am 1ft 3s 3s 11
mph
1015mb 71f 73f
3:50am 1ft 3s 3s 11 13 mph 1015.2mb 71f 72f
2:50am 1ft 2s 3s 11 13 mph 1016.3mb 71f 72f
1:50am 1ft 3s 3s 11 13 mph 1017.2mb 72f 72f
12:50am 1ft 3s 3s 11
mph
1017.9mb 72f 72f
Wed 03/25 11:50pm 1ft 3s 3s 9 11 mph 1018.4mb 72f 71f
10:50pm 1.3ft 3s 3s 9 11 mph 1018.7mb 72f 71f
9:50pm 1.3ft 3s 3s 11 13 mph 1018.6mb 72f 71f
8:50pm 1.3ft 3s 3s 13
mph
1018.4mb 72f 71f
7:50pm 1.3ft 3s 3s 13 16 mph 1018.2mb 72f 71f
6:50pm 1.3ft 3s 3s 13 16 mph 1018.1mb 72f 72f
5:50pm 1.3ft 3s 3s 9 11 mph 1018.5mb 72f 72f
4:50pm 1ft 3s 3s 9 11 mph 1018.8mb 73f 72f
3:50pm 1ft 3s 3s 9 11 mph 1019.2mb 73f 71f
2:50pm 1ft 3s 3s 9 11 mph 1019.6mb 72f 71f
1:50pm 1ft 3s 3s 7 9 mph 1020.2mb 72f 71f
12:50pm 1ft 3s 3s 9
mph
1020.6mb 72f 71f
11:50am 1ft 3s 3s 7 9 mph 1020.6mb 72f 71f
10:50am 1ft 3s 3s 11 13 mph 1020.1mb 71f 71f
9:50am 1ft 2s 3s 13
mph
1019.9mb 71f 70f
8:50am 1ft 6s 3s 11 13 mph 1019.7mb 71f 70f
7:50am 1ft 6s 3s 11 13 mph 1019mb 71f 69f
6:50am 1ft 6s 3s 9 11 mph 1018.4mb 71f 69f
5:50am 1ft 6s 3s 9 11 mph 1018mb 71f 69f
4:50am 1ft 3s 3s 11 13 mph 1017.7mb 71f 69f
3:50am 1ft 3s 3s 9 11 mph 1017.7mb 71f 69f
2:50am 1ft 3s 4s 11 13 mph 1018.1mb 71f 69f
1:50am 1ft 3s 4s 9 11 mph 1018.6mb 71f 68f
12:50am 1.3ft 3s 4s 7
mph
1019.2mb 71f 68f
Tue 03/24 11:50pm 1.3ft 4s 4s 7 9 mph 1019.4mb 71f 68f
10:50pm 1.3ft 3s 4s 7 9 mph 1019.2mb 71f 68f
9:50pm 1.6ft 3s 4s 9 11 mph 1018.8mb 71f 68f
8:50pm 1.6ft 3s 3s 9 11 mph 1018.9mb 71f 67f
7:50pm 2ft 4s 4s 11 13 mph 1018.5mb 71f 67f
6:50pm 2ft 4s 4s 9 11 mph 1018.2mb 71f 67f
5:50pm 2ft 4s 4s 11 13 mph 1017.7mb 71f 68f
4:50pm 2ft 4s 4s 13 16 mph 1017.7mb 71f 68f
3:50pm 2ft 4s 4s 13 16 mph 1017.9mb 71f 68f
2:50pm 2ft 5s 4s 11 13 mph 1018.6mb 71f 68f
1:50pm 2.5ft 5s 4s 11 13 mph 1018.7mb 71f 68f
12:50pm 2.5ft 5s 4s 11 13 mph 1018.9mb 71f 68f
11:50am 2.5ft 5s 4s 9 11 mph 1019.4mb 71f 68f
10:50am 3ft 5s 4s 11 13 mph 1018.9mb 71f 68f
9:50am 3.5ft 5s 4s 13 16 mph 1018.3mb 71f 68f
8:50am 4ft 5s 4s 16 18 mph 1017.6mb 71f 68f
7:50am 4ft 5s 4s 16 18 mph 1017.2mb 71f 68f
6:50am 3.5ft 5s 4s 16 20 mph 1016.5mb 71f 68f
5:50am 3ft 4s 4s 18 20 mph 1016mb 71f 68f
4:50am 2.5ft 4s 4s 18 20 mph 1015.4mb 71f 69f
3:50am 2.5ft 4s 4s 11 13 mph 1015.7mb 71f 69f
2:50am 2.5ft 4s 4s 13 16 mph 1016mb 72f 70f
1:50am 2.5ft 6s 4s 13 16 mph 1015.9mb 71f 70f
12:50am 2.5ft 6s 4s 13 18 mph 1015.8mb 72f 70f
Mon 03/23 11:50pm 2.5ft 6s 4s 9 11 mph 1016.2mb 72f 70f
10:50pm 3ft 6s 4s 11 13 mph 1015.7mb 72f 70f
9:50pm 3ft 6s 4s 13 16 mph 1015mb 72f 70f
8:50pm 3ft 6s 5s 13
mph
1014.3mb 72f 70f
7:50pm 3ft 6s 4s 13 16 mph 1013.9mb 72f 70f
6:50pm 3ft 6s 5s 16 18 mph 1013.4mb 72f 72f
5:50pm 3.5ft 6s 5s 11 13 mph 1012.9mb 72f 71f
4:50pm 2.5ft 5s 4s 11 13 mph 1012.7mb 72f 71f
3:50pm 2.5ft 5s 4s 11 16 mph 1012.8mb 73f 72f
2:50pm 2.5ft 5s 4s 13
mph
1013.1mb 73f 72f
1:50pm 2.5ft 5s 5s 9
mph
1013.6mb 73f 73f
12:50pm 2.5ft 5s 4s 7
mph
1013.7mb 72f 73f
11:50am 3ft 5s 4s 9 11 mph 1013.7mb 72f 73f
10:50am 3ft 5s 5s 13 16 mph 1013.5mb 72f 73f
9:50am 3ft 5s 4s 4 7 mph 1013.1mb 72f 72f
8:50am 3ft 5s 4s 2 4 mph 1012.6mb 71f 72f
7:50am 3ft 5s 4s 11 18 mph 1011.8mb 71f 73f
6:50am 2.5ft 5s 4s 18 22 mph 1011.3mb 71f 73f
5:50am 3ft 6s 4s 11 16 mph 1011.4mb 71f 72f
4:50am 3ft 5s 4s 13 16 mph 1011.8mb 72f 72f